Time;durP1;ratioP1;P1;durP2;ratioP2;P2;SDS_P1;SDS_P2;PMS_P1;PMS_P2;Temp;Humidity;BMP_temperature;BMP_pressure;BME280_temperature;BME280_humidity;BME280_pressure;Samples;Min_cycle;Max_cycle;Signal;HPM_P1;HPM_P2
2023/04/02 00:00:59;;;;;;;6.10;2.70;;;4.70;99.90;;;;;;5005611;28;20583;-72
2023/04/02 00:03:52;;;;;;;7.35;3.17;;;4.60;99.90;;;;;;5058354;28;20058;-72
2023/04/02 00:06:43;;;;;;;7.57;2.97;;;4.60;99.90;;;;;;5039450;28;20048;-71
2023/04/02 00:09:12;;;;;;;5.47;2.25;;;4.50;99.90;;;;;;5074429;28;20056;-72
2023/04/02 00:11:40;;;;;;;6.65;2.70;;;4.50;99.90;;;;;;5058629;28;20056;-74
2023/04/02 00:14:21;;;;;;;6.85;2.35;;;4.40;99.90;;;;;;5074881;28;20084;-73
2023/04/02 00:16:47;;;;;;;5.20;2.63;;;4.70;99.90;;;;;;5058801;28;20048;-70
2023/04/02 00:19:23;;;;;;;5.00;2.72;;;4.30;99.90;;;;;;5026274;28;20076;-71
2023/04/02 00:21:51;;;;;;;8.30;2.95;;;4.20;99.90;;;;;;5059000;28;20044;-71
2023/04/02 00:24:20;;;;;;;6.30;2.53;;;4.20;99.90;;;;;;5043867;28;20123;-71
2023/04/02 00:26:52;;;;;;;4.50;2.40;;;4.20;99.90;;;;;;5058822;28;20429;-72
2023/04/02 00:29:19;;;;;;;6.22;2.50;;;4.30;99.90;;;;;;5061429;28;20149;-71
2023/04/02 00:31:49;;;;;;;7.53;2.40;;;4.40;99.90;;;;;;5040708;28;20044;-71
2023/04/02 00:34:20;;;;;;;6.45;2.47;;;4.00;99.90;;;;;;5057608;28;20270;-72
2023/04/02 00:36:48;;;;;;;10.32;3.30;;;4.00;99.90;;;;;;5057921;28;20128;-71
2023/04/02 00:39:22;;;;;;;7.00;2.80;;;3.90;99.90;;;;;;5058609;28;20044;-72
2023/04/02 00:41:57;;;;;;;8.63;3.30;;;3.90;99.90;;;;;;5058879;28;20517;-72
2023/04/02 00:44:28;;;;;;;8.77;2.58;;;3.90;99.90;;;;;;5057595;28;20044;-72
2023/04/02 00:46:56;;;;;;;8.52;2.50;;;4.10;99.90;;;;;;5057586;28;20512;-71
2023/04/02 00:49:42;;;;;;;5.22;2.70;;;3.80;99.90;;;;;;5073893;28;20080;-71
2023/04/02 00:52:15;;;;;;;7.32;3.17;;;3.70;99.90;;;;;;5043290;28;20063;-72
2023/04/02 00:54:49;;;;;;;6.18;2.50;;;3.70;99.90;;;;;;5057964;28;20124;-71
2023/04/02 00:57:20;;;;;;;8.95;2.40;;;3.90;99.90;;;;;;5041275;28;20059;-71
2023/04/02 01:00:02;;;;;;;7.82;2.40;;;3.70;99.90;;;;;;5057890;28;20046;-71
2023/04/02 01:02:31;;;;;;;5.43;2.30;;;3.60;99.90;;;;;;5058141;28;20044;-73
2023/04/02 01:05:18;;;;;;;4.38;2.40;;;3.60;99.90;;;;;;5058053;28;20040;-72
2023/04/02 01:08:10;;;;;;;7.78;2.65;;;3.50;99.90;;;;;;5032917;28;20774;-72
2023/04/02 01:11:03;;;;;;;5.35;2.05;;;3.50;99.90;;;;;;5059246;28;20048;-71
2023/04/02 01:14:00;;;;;;;6.43;2.20;;;3.40;99.90;;;;;;5056345;28;20047;-72
2023/04/02 01:16:41;;;;;;;5.50;2.28;;;3.40;99.90;;;;;;5053048;28;20137;-72
2023/04/02 01:19:47;;;;;;;7.13;2.60;;;3.40;99.90;;;;;;5042217;28;20056;-72
2023/04/02 01:22:51;;;;;;;6.72;2.38;;;3.20;99.90;;;;;;5055390;28;20463;-71
2023/04/02 01:25:27;;;;;;;4.65;2.17;;;3.30;99.90;;;;;;5059080;28;20052;-71
2023/04/02 01:28:11;;;;;;;7.60;2.60;;;4.40;99.90;;;;;;5058264;28;20161;-71
2023/04/02 01:30:38;;;;;;;5.57;2.58;;;3.30;99.90;;;;;;5056521;28;20041;-72
2023/04/02 01:33:05;;;;;;;5.80;2.35;;;3.70;99.90;;;;;;5042451;28;20040;-71
2023/04/02 01:35:41;;;;;;;4.95;2.20;;;3.40;99.90;;;;;;5059949;28;20105;-72
2023/04/02 01:38:12;;;;;;;5.15;2.22;;;3.20;99.90;;;;;;5057293;28;20052;-71
2023/04/02 01:40:57;;;;;;;6.38;2.28;;;2.80;99.90;;;;;;5057094;28;20105;-71
2023/04/02 01:43:42;;;;;;;4.63;2.15;;;3.10;99.90;;;;;;5052416;28;20546;-71
2023/04/02 01:46:32;;;;;;;8.38;2.85;;;3.10;99.90;;;;;;5056851;28;20091;-73
2023/04/02 01:49:10;;;;;;;7.13;2.17;;;3.00;99.90;;;;;;5058375;28;20057;-71
2023/04/02 01:51:41;;;;;;;6.22;2.47;;;3.00;99.90;;;;;;5058290;28;20040;-69
2023/04/02 01:54:08;;;;;;;5.28;1.85;;;2.90;99.90;;;;;;5058994;28;20036;-71
2023/04/02 01:56:34;;;;;;;5.85;2.20;;;3.00;99.90;;;;;;5060089;28;20458;-71
2023/04/02 01:59:02;;;;;;;5.90;2.30;;;2.90;99.90;;;;;;5056603;28;20078;-72
2023/04/02 02:01:37;;;;;;;4.45;1.90;;;2.90;99.90;;;;;;5059608;28;20402;-72
2023/04/02 02:04:03;;;;;;;5.30;2.10;;;2.90;99.90;;;;;;5058676;28;20618;-72
2023/04/02 02:06:30;;;;;;;8.02;2.15;;;2.90;99.90;;;;;;5044135;28;20095;-71
2023/04/02 02:09:03;;;;;;;7.15;2.58;;;2.80;99.90;;;;;;5057615;28;20045;-72
2023/04/02 02:11:31;;;;;;;6.78;2.13;;;4.00;99.90;;;;;;5059450;28;20092;-71
2023/04/02 02:14:11;;;;;;;5.43;2.13;;;2.80;99.90;;;;;;5057530;28;20376;-72
2023/04/02 02:16:40;;;;;;;6.88;3.25;;;2.80;99.90;;;;;;5059063;28;20051;-72
2023/04/02 02:19:41;;;;;;;5.55;2.10;;;2.70;99.90;;;;;;5058763;28;20493;-72
2023/04/02 02:22:28;;;;;;;5.18;2.03;;;2.80;99.90;;;;;;5040153;28;20056;-71
2023/04/02 02:24:59;;;;;;;5.78;2.35;;;2.70;99.90;;;;;;5057454;28;20044;-72
2023/04/02 02:27:25;;;;;;;5.57;2.00;;;3.20;99.90;;;;;;5052387;28;20131;-71
2023/04/02 02:29:57;;;;;;;3.30;1.83;;;2.60;99.90;;;;;;5055449;28;20131;-72
2023/04/02 02:32:31;;;;;;;7.38;2.00;;;2.70;99.90;;;;;;5056934;28;20037;-73
2023/04/02 02:35:12;;;;;;;4.88;1.80;;;2.60;99.90;;;;;;5056469;28;20503;-71
2023/04/02 02:37:44;;;;;;;4.43;1.80;;;2.50;99.90;;;;;;5055255;28;20047;-71
2023/04/02 02:40:17;;;;;;;6.47;2.40;;;3.60;99.90;;;;;;5058900;28;20127;-71
2023/04/02 02:42:50;;;;;;;3.85;1.60;;;2.50;99.90;;;;;;5044834;28;20186;-71
2023/04/02 02:45:25;;;;;;;4.68;1.98;;;4.10;99.90;;;;;;5056163;28;20090;-72
2023/04/02 02:47:53;;;;;;;3.45;1.50;;;2.40;99.90;;;;;;5057678;28;20044;-72
2023/04/02 02:50:31;;;;;;;6.30;1.67;;;2.80;99.90;;;;;;5057519;28;20378;-72
2023/04/02 02:52:59;;;;;;;3.88;1.70;;;2.40;99.90;;;;;;5041259;28;20052;-71
2023/04/02 02:55:35;;;;;;;4.95;2.05;;;2.30;99.90;;;;;;5046529;28;20133;-70
2023/04/02 02:58:25;;;;;;;3.75;1.80;;;2.90;99.90;;;;;;5059198;28;20064;-71
2023/04/02 03:00:51;;;;;;;4.55;2.00;;;2.40;99.90;;;;;;5044345;28;20547;-71
2023/04/02 03:03:22;;;;;;;2.88;1.77;;;2.30;99.90;;;;;;5061831;28;20037;-72
2023/04/02 03:06:04;;;;;;;5.40;2.08;;;2.40;99.90;;;;;;5059244;28;20045;-71
2023/04/02 03:08:39;;;;;;;6.03;1.83;;;2.40;99.90;;;;;;5061093;28;20048;-73
2023/04/02 03:11:28;;;;;;;4.38;1.65;;;2.90;99.90;;;;;;5061448;28;20048;-72
2023/04/02 03:14:02;;;;;;;3.75;1.48;;;2.60;99.90;;;;;;5060687;28;20764;-71
2023/04/02 03:16:37;;;;;;;5.40;1.60;;;2.10;99.90;;;;;;5042934;28;20044;-71
2023/04/02 03:19:58;;;;;;;3.63;1.53;;;2.10;99.90;;;;;;5043570;28;20051;-72
2023/04/02 03:22:30;;;;;;;7.38;1.50;;;2.10;99.90;;;;;;5062630;28;20052;-72
2023/04/02 03:25:20;;;;;;;3.90;1.70;;;2.90;99.90;;;;;;5061403;28;20083;-72
2023/04/02 03:27:50;;;;;;;4.70;1.60;;;2.60;99.90;;;;;;5062815;28;20064;-71
2023/04/02 03:30:21;;;;;;;;;;;2.30;99.90;;;;;;5059939;28;20083;-71
2023/04/02 03:32:52;;;;;;;7.73;1.40;;;2.00;99.90;;;;;;5061165;28;19946;-71
2023/04/02 03:35:33;;;;;;;2.22;1.20;;;2.00;99.90;;;;;;5058808;28;20048;-72
2023/04/02 03:38:42;;;;;;;4.35;1.48;;;2.00;99.90;;;;;;5061247;28;20044;-71
2023/04/02 03:41:33;;;;;;;4.80;1.40;;;2.00;99.90;;;;;;4979014;28;20070;-71
2023/04/02 03:44:06;;;;;;;5.90;1.63;;;2.00;99.90;;;;;;4947791;28;20577;-71
2023/04/02 03:46:48;;;;;;;10.18;2.55;;;2.80;99.90;;;;;;5019398;28;20064;-72
2023/04/02 03:49:24;;;;;;;7.50;1.60;;;1.90;99.90;;;;;;5058267;28;20037;-71
2023/04/02 03:52:09;;;;;;;6.25;1.58;;;2.60;99.90;;;;;;5059040;28;20052;-71
2023/04/02 03:54:36;;;;;;;3.13;1.50;;;1.90;99.90;;;;;;5057239;28;20048;-71
2023/04/02 03:57:02;;;;;;;5.22;1.67;;;1.90;99.90;;;;;;5042770;28;20045;-72
2023/04/02 04:00:26;;;;;;;5.15;1.45;;;1.90;99.90;;;;;;5060859;28;20045;-72
2023/04/02 04:02:57;;;;;;;4.68;1.30;;;1.90;99.90;;;;;;4968799;28;20151;-72
2023/04/02 04:05:43;;;;;;;3.60;1.48;;;1.80;99.90;;;;;;5055083;28;20049;-72
2023/04/02 04:08:16;;;;;;;4.80;1.48;;;3.30;99.90;;;;;;5061185;28;20048;-72
2023/04/02 04:10:43;;;;;;;6.00;1.58;;;1.80;99.90;;;;;;5057846;28;20045;-72
2023/04/02 04:13:13;;;;;;;3.88;1.55;;;1.70;99.90;;;;;;5059264;28;20039;-71
2023/04/02 04:15:39;;;;;;;4.50;1.50;;;1.70;99.90;;;;;;5059399;28;20048;-71
2023/04/02 04:18:39;;;;;;;2.88;1.35;;;1.80;99.90;;;;;;5060203;28;20101;-71
2023/04/02 04:21:29;;;;;;;5.32;1.42;;;1.70;99.90;;;;;;5056307;28;20056;-72
2023/04/02 04:24:06;;;;;;;5.95;1.52;;;1.70;99.90;;;;;;5058340;28;20119;-73
2023/04/02 04:26:48;;;;;;;8.13;1.73;;;1.60;99.90;;;;;;5041750;28;20049;-72
2023/04/02 04:29:18;;;;;;;6.95;1.77;;;1.60;99.90;;;;;;5059835;28;20110;-71
2023/04/02 04:31:48;;;;;;;4.13;1.30;;;1.60;99.90;;;;;;5059150;28;20076;-71
2023/04/02 04:34:45;;;;;;;4.47;1.60;;;1.60;99.90;;;;;;5059297;28;20043;-72
2023/04/02 04:37:25;;;;;;;2.78;1.30;;;2.10;99.90;;;;;;5056293;28;20076;-70
2023/04/02 04:40:05;;;;;;;4.72;1.25;;;1.50;99.90;;;;;;5050363;28;20040;-72
2023/04/02 04:42:34;;;;;;;4.07;1.50;;;1.50;99.90;;;;;;5059157;28;20047;-71
2023/04/02 04:45:19;;;;;;;5.00;1.40;;;1.50;99.90;;;;;;5058731;28;20127;-73
2023/04/02 04:48:09;;;;;;;2.47;1.30;;;1.50;99.90;;;;;;5059203;28;20045;-71
2023/04/02 04:50:59;;;;;;;4.00;1.42;;;1.50;99.90;;;;;;5056604;28;20566;-71
2023/04/02 04:53:27;;;;;;;5.95;1.65;;;1.50;99.90;;;;;;5043206;28;20132;-73
2023/04/02 04:56:16;;;;;;;5.30;1.55;;;1.40;99.90;;;;;;5068318;28;20056;-71
2023/04/02 04:58:52;;;;;;;5.30;2.00;;;2.90;99.90;;;;;;5060141;28;20056;-72
2023/04/02 05:01:22;;;;;;;;;;;1.40;99.90;;;;;;5041113;28;20060;-72
2023/04/02 05:04:04;;;;;;;4.70;1.45;;;1.80;99.90;;;;;;5055287;28;20378;-72
2023/04/02 05:06:40;;;;;;;5.72;1.70;;;1.40;99.90;;;;;;5057633;28;20048;-71
2023/04/02 05:09:27;;;;;;;3.85;1.33;;;1.40;99.90;;;;;;5041596;28;20052;-73
2023/04/02 05:12:03;;;;;;;4.90;1.60;;;1.40;99.90;;;;;;5053393;28;20052;-71
2023/04/02 05:14:47;;;;;;;3.05;1.50;;;1.40;99.90;;;;;;5047188;28;20102;-71
2023/04/02 05:17:27;;;;;;;4.10;1.20;;;1.40;99.90;;;;;;5056081;28;20087;-73
2023/04/02 05:20:08;;;;;;;6.18;1.60;;;1.40;99.90;;;;;;5055963;28;20150;-72
2023/04/02 05:22:45;;;;;;;8.52;2.28;;;1.40;99.90;;;;;;5041634;28;20045;-70
2023/04/02 05:25:27;;;;;;;4.47;1.35;;;1.40;99.90;;;;;;5054987;28;20441;-71
2023/04/02 05:28:05;;;;;;;2.80;1.52;;;1.40;99.90;;;;;;5038156;28;20045;-72
2023/04/02 05:30:55;;;;;;;5.25;1.40;;;1.40;99.90;;;;;;5057787;28;20055;-72
2023/04/02 05:33:29;;;;;;;4.68;1.63;;;1.50;99.90;;;;;;5052613;28;20074;-73
2023/04/02 05:36:06;;;;;;;2.25;1.50;;;1.40;99.90;;;;;;5055225;28;20054;-73
2023/04/02 05:38:36;;;;;;;2.92;1.50;;;1.50;99.90;;;;;;5056305;28;20487;-73
2023/04/02 05:41:31;;;;;;;4.75;1.90;;;2.70;99.90;;;;;;5056635;28;20040;-73
2023/04/02 05:44:02;;;;;;;7.80;1.70;;;1.50;99.90;;;;;;5056717;28;20057;-73
2023/04/02 05:46:35;;;;;;;3.75;1.58;;;1.90;99.90;;;;;;5055222;28;20044;-74
2023/04/02 05:49:06;;;;;;;2.97;1.30;;;1.50;99.90;;;;;;5052767;28;20052;-74
2023/04/02 05:51:46;;;;;;;7.07;1.70;;;1.90;99.90;;;;;;5056426;28;20052;-73
2023/04/02 05:54:48;;;;;;;4.47;1.30;;;2.60;99.90;;;;;;5048725;28;20553;-73
2023/04/02 05:57:22;;;;;;;3.83;1.20;;;1.60;99.90;;;;;;5056644;28;20079;-72
2023/04/02 05:59:55;;;;;;;4.35;1.52;;;1.60;99.90;;;;;;5054631;28;20049;-74
2023/04/02 06:02:31;;;;;;;3.00;1.45;;;1.70;99.90;;;;;;5057019;28;20048;-74
2023/04/02 06:05:25;;;;;;;6.50;1.52;;;1.80;99.90;;;;;;5057751;28;20041;-73
2023/04/02 06:08:06;;;;;;;3.28;1.40;;;1.70;99.90;;;;;;5049238;28;20061;-73
2023/04/02 06:10:44;;;;;;;4.38;1.40;;;1.80;99.90;;;;;;5053006;28;20040;-73
2023/04/02 06:13:16;;;;;;;4.68;1.45;;;3.00;99.90;;;;;;5057217;28;20079;-74
2023/04/02 06:15:42;;;;;;;2.63;1.20;;;1.80;99.90;;;;;;5055814;28;20044;-74
2023/04/02 06:18:18;;;;;;;3.38;1.40;;;1.90;99.90;;;;;;5073406;28;20052;-71
2023/04/02 06:20:45;;;;;;;4.13;1.40;;;1.90;99.90;;;;;;5055200;28;20562;-74
2023/04/02 06:23:14;;;;;;;3.53;1.10;;;2.00;99.90;;;;;;5057600;28;20110;-74
2023/04/02 06:26:21;;;;;;;3.88;1.08;;;2.00;99.90;;;;;;5056543;28;20512;-74
2023/04/02 06:29:05;;;;;;;2.28;1.13;;;2.10;99.90;;;;;;5002898;28;20418;-73
2023/04/02 06:31:41;;;;;;;3.05;1.17;;;2.20;99.90;;;;;;5054093;28;20056;-71
2023/04/02 06:34:21;;;;;;;3.30;1.10;;;2.20;99.90;;;;;;5056981;28;20592;-72
2023/04/02 06:36:48;;;;;;;5.40;1.48;;;2.20;99.90;;;;;;5059874;28;20043;-73
2023/04/02 06:39:21;;;;;;;4.85;1.40;;;2.20;99.90;;;;;;5057593;28;20044;-74
2023/04/02 06:41:56;;;;;;;4.32;1.67;;;2.90;99.90;;;;;;5042209;28;20047;-75
2023/04/02 06:44:26;;;;;;;6.05;1.65;;;2.90;99.90;;;;;;5043684;28;20425;-74
2023/04/02 06:47:22;;;;;;;5.88;1.65;;;3.50;99.90;;;;;;5056965;28;20767;-73
2023/04/02 06:49:51;;;;;;;3.80;1.40;;;2.50;99.90;;;;;;5053997;28;20044;-74
2023/04/02 06:52:33;;;;;;;3.65;1.15;;;2.50;99.90;;;;;;5050380;28;20044;-73
2023/04/02 06:55:05;;;;;;;3.75;1.20;;;2.60;99.90;;;;;;5057112;28;20445;-76
2023/04/02 06:57:34;;;;;;;4.75;1.52;;;2.70;99.90;;;;;;5056654;28;20562;-74
2023/04/02 07:00:00;;;;;;;5.43;1.30;;;2.70;99.90;;;;;;5041780;28;20053;-73
2023/04/02 07:02:32;;;;;;;6.15;2.10;;;2.80;99.90;;;;;;5058220;28;20053;-72
2023/04/02 07:05:02;;;;;;;3.67;1.20;;;2.90;99.90;;;;;;5057532;28;20134;-72
2023/04/02 07:07:28;;;;;;;4.72;1.40;;;3.00;99.90;;;;;;5025374;28;20044;-72
2023/04/02 07:09:54;;;;;;;3.10;0.98;;;3.10;99.90;;;;;;5056804;28;20051;-72
2023/04/02 07:12:23;;;;;;;2.97;1.20;;;3.20;99.90;;;;;;5058173;28;20257;-71
2023/04/02 07:14:50;;;;;;;4.93;1.10;;;3.40;99.90;;;;;;5052904;28;20561;-72
2023/04/02 07:17:17;;;;;;;2.45;1.10;;;3.50;99.90;;;;;;5056966;28;20093;-72
2023/04/02 07:19:47;;;;;;;3.78;1.13;;;3.60;99.90;;;;;;5044135;28;20478;-71
2023/04/02 07:22:19;;;;;;;5.78;1.20;;;3.80;99.90;;;;;;5077514;28;20084;-70
2023/04/02 07:24:45;;;;;;;2.75;1.20;;;3.90;99.90;;;;;;5057990;28;20041;-71
2023/04/02 07:27:13;;;;;;;3.00;1.30;;;4.00;99.90;;;;;;5059856;28;20522;-73
2023/04/02 07:29:41;;;;;;;4.05;1.40;;;4.30;99.90;;;;;;5059718;28;20056;-70
2023/04/02 07:32:12;;;;;;;4.53;1.35;;;4.40;99.90;;;;;;5046485;28;20053;-73
2023/04/02 07:34:39;;;;;;;2.42;1.30;;;4.60;99.90;;;;;;5073904;28;20045;-72
2023/04/02 07:37:07;;;;;;;3.40;1.13;;;4.80;99.90;;;;;;5055154;28;20573;-72
2023/04/02 07:39:34;;;;;;;2.83;1.33;;;5.00;99.90;;;;;;5043614;28;20040;-73
2023/04/02 07:42:01;;;;;;;3.65;1.02;;;5.20;99.90;;;;;;5040444;28;20060;-71
2023/04/02 07:44:27;;;;;;;4.47;1.27;;;5.30;99.90;;;;;;5059337;28;20044;-70
2023/04/02 07:46:53;;;;;;;5.45;0.98;;;5.90;99.90;;;;;;5042710;28;20058;-72
2023/04/02 07:49:21;;;;;;;4.05;0.90;;;5.70;99.90;;;;;;5076906;28;20053;-75
2023/04/02 07:51:47;;;;;;;4.07;1.27;;;7.10;99.90;;;;;;5057379;28;20044;-75
2023/04/02 07:54:13;;;;;;;3.15;1.30;;;6.10;99.90;;;;;;5058937;28;20044;-74
2023/04/02 07:56:39;;;;;;;5.13;1.30;;;6.20;99.90;;;;;;5042758;28;20556;-74
2023/04/02 07:59:05;;;;;;;3.50;1.17;;;5.50;99.90;;;;;;5043764;28;20111;-75
2023/04/02 08:01:34;;;;;;;2.13;0.90;;;6.60;99.90;;;;;;5057800;28;20056;-74
2023/04/02 08:04:02;;;;;;;3.53;1.15;;;6.80;99.90;;;;;;5059721;28;20090;-76
2023/04/02 08:06:29;;;;;;;2.28;1.20;;;7.00;99.90;;;;;;5061780;28;20059;-72
2023/04/02 08:08:57;;;;;;;3.50;1.20;;;7.10;99.90;;;;;;5055534;28;20051;-73
2023/04/02 08:11:23;;;;;;;3.40;1.20;;;7.20;99.90;;;;;;5073308;28;20049;-74
2023/04/02 08:13:58;;;;;;;3.50;1.38;;;7.30;99.90;;;;;;5058984;28;20048;-72
2023/04/02 08:16:24;;;;;;;3.42;1.10;;;7.50;99.90;;;;;;5074189;28;20045;-70
2023/04/02 08:18:51;;;;;;;3.65;1.10;;;7.80;99.90;;;;;;5040431;28;20478;-74
2023/04/02 08:21:17;;;;;;;2.90;1.30;;;7.80;99.90;;;;;;5059260;28;20630;-71
2023/04/02 08:23:43;;;;;;;4.35;1.48;;;7.90;99.90;;;;;;5080533;28;20717;-72
2023/04/02 08:26:08;;;;;;;6.95;2.17;;;8.00;99.90;;;;;;5066300;28;20049;-72
2023/04/02 08:28:34;;;;;;;4.43;2.03;;;7.90;99.90;;;;;;5045616;28;20045;-71
2023/04/02 08:31:00;;;;;;;4.00;1.70;;;8.20;99.90;;;;;;5049007;28;20578;-71
2023/04/02 08:33:26;;;;;;;7.75;2.83;;;8.40;99.90;;;;;;5063043;28;20403;-71
2023/04/02 08:35:52;;;;;;;3.88;1.50;;;8.60;99.90;;;;;;5060840;28;20145;-72
2023/04/02 08:38:20;;;;;;;4.03;1.27;;;8.70;99.90;;;;;;5048652;28;20056;-73
2023/04/02 08:40:53;;;;;;;2.53;1.00;;;9.00;99.90;;;;;;5063719;28;20117;-71
2023/04/02 08:43:36;;;;;;;7.43;1.27;;;9.20;99.90;;;;;;5063679;28;20057;-71
2023/04/02 08:46:11;;;;;;;3.42;1.17;;;9.40;99.90;;;;;;5061707;28;20052;-71
2023/04/02 08:48:40;;;;;;;1.65;0.93;;;9.70;99.90;;;;;;5061710;28;20476;-71
2023/04/02 08:51:15;;;;;;;3.22;1.10;;;10.00;99.90;;;;;;5063313;28;20048;-72
2023/04/02 08:53:42;;;;;;;5.82;1.30;;;10.10;99.90;;;;;;5063979;28;20052;-71
2023/04/02 08:56:21;;;;;;;3.17;1.20;;;10.30;99.90;;;;;;5063511;28;20083;-72
2023/04/02 08:58:53;;;;;;;3.03;1.23;;;10.40;99.90;;;;;;5062468;28;20047;-71
2023/04/02 09:01:46;;;;;;;3.63;1.27;;;10.50;99.90;;;;;;5063858;28;20113;-72
2023/04/02 09:04:22;;;;;;;3.28;1.00;;;10.80;99.90;;;;;;5064142;28;20044;-71
2023/04/02 09:06:51;;;;;;;4.22;1.25;;;11.00;99.90;;;;;;5062314;28;20068;-71
2023/04/02 09:09:18;;;;;;;6.18;1.20;;;11.10;99.90;;;;;;5063295;28;20098;-71
2023/04/02 09:12:02;;;;;;;4.05;1.13;;;11.20;99.90;;;;;;5064570;28;20148;-72
2023/04/02 09:14:50;;;;;;;5.05;1.27;;;11.40;99.90;;;;;;5061190;28;20072;-72
2023/04/02 09:17:22;;;;;;;3.65;0.98;;;11.60;99.90;;;;;;5078149;28;20087;-71
2023/04/02 09:20:07;;;;;;;3.05;1.15;;;11.80;99.90;;;;;;5077385;28;20068;-71
2023/04/02 09:22:33;;;;;;;3.20;1.25;;;12.00;99.90;;;;;;5054468;28;20511;-72
2023/04/02 09:25:03;;;;;;;4.47;1.17;;;12.10;99.90;;;;;;5064264;28;20049;-72
2023/04/02 09:27:34;;;;;;;3.03;1.00;;;12.30;99.90;;;;;;5059170;28;20407;-72
2023/04/02 09:30:11;;;;;;;3.70;1.20;;;12.40;99.90;;;;;;5047582;28;20087;-71
2023/04/02 09:32:39;;;;;;;3.30;0.90;;;12.60;99.90;;;;;;5061198;28;20094;-71
2023/04/02 09:35:11;;;;;;;3.65;1.20;;;12.70;99.90;;;;;;5063535;28;20040;-73
2023/04/02 09:37:39;;;;;;;3.83;1.10;;;12.80;99.90;;;;;;5063433;28;20048;-71
2023/04/02 09:40:25;;;;;;;2.28;1.00;;;12.70;99.90;;;;;;5046577;28;20562;-71
2023/04/02 09:43:12;;;;;;;4.22;1.85;;;12.60;99.90;;;;;;5062424;28;20052;-71
2023/04/02 09:45:39;;;;;;;3.33;1.00;;;12.70;99.90;;;;;;5063075;28;20044;-71
2023/04/02 09:48:40;;;;;;;3.45;1.10;;;12.80;99.90;;;;;;5063275;28;20052;-72
2023/04/02 09:51:17;;;;;;;2.40;0.98;;;13.00;99.90;;;;;;5050667;28;20052;-72
2023/04/02 09:53:47;;;;;;;4.18;1.08;;;13.00;99.90;;;;;;5062233;28;20074;-72
2023/04/02 09:56:22;;;;;;;3.85;1.08;;;13.20;99.90;;;;;;5063588;28;20079;-71
2023/04/02 09:59:18;;;;;;;2.92;0.93;;;13.40;99.90;;;;;;5047561;28;20045;-71
2023/04/02 10:01:47;;;;;;;3.00;0.90;;;13.40;99.90;;;;;;5063501;28;20052;-71
2023/04/02 10:04:58;;;;;;;3.78;0.95;;;13.30;99.90;;;;;;5062299;28;20486;-71
2023/04/02 10:07:47;;;;;;;1.70;1.17;;;13.50;99.90;;;;;;5050167;28;20087;-71
2023/04/02 10:10:49;;;;;;;2.20;0.73;;;13.70;99.90;;;;;;5061789;28;20053;-71
2023/04/02 10:13:47;;;;;;;1.92;1.15;;;13.80;99.90;;;;;;5064898;28;20092;-71
2023/04/02 10:16:31;;;;;;;5.22;1.00;;;13.90;99.90;;;;;;5063321;28;20101;-71
2023/04/02 10:19:32;;;;;;;2.88;0.90;;;14.00;99.90;;;;;;5062051;28;20064;-71
2023/04/02 10:22:02;;;;;;;2.38;0.77;;;14.10;99.90;;;;;;5063748;28;20599;-70
2023/04/02 10:24:28;;;;;;;2.28;1.00;;;14.30;99.90;;;;;;5063160;28;20056;-70
2023/04/02 10:27:21;;;;;;;1.48;0.70;;;14.40;99.90;;;;;;5060644;28;20048;-70
2023/04/02 10:30:08;;;;;;;3.42;1.10;;;14.50;99.90;;;;;;5062800;28;20052;-72
2023/04/02 10:32:49;;;;;;;2.72;1.08;;;14.60;98.60;;;;;;5057825;28;20076;-70
2023/04/02 10:35:46;;;;;;;2.28;0.98;;;14.60;99.90;;;;;;5058774;28;20479;-71
2023/04/02 10:38:50;;;;;;;3.50;1.08;;;14.60;99.90;;;;;;5062610;28;20055;-70
2023/04/02 10:41:38;;;;;;;2.33;1.00;;;14.70;98.70;;;;;;5061398;28;20060;-71
2023/04/02 10:44:17;;;;;;;3.33;1.00;;;14.80;97.60;;;;;;5061085;28;20063;-71
2023/04/02 10:47:03;;;;;;;2.03;0.80;;;14.70;99.30;;;;;;5060112;28;20186;-71
2023/04/02 10:49:46;;;;;;;2.50;1.02;;;14.90;98.40;;;;;;5060552;28;20048;-71
2023/04/02 10:52:28;;;;;;;2.28;0.73;;;15.00;98.20;;;;;;5047656;28;20060;-72
2023/04/02 10:55:02;;;;;;;2.55;1.10;;;15.20;98.20;;;;;;5045306;28;20056;-71
2023/04/02 10:57:32;;;;;;;3.75;1.13;;;15.40;99.10;;;;;;5054645;28;20044;-71
2023/04/02 11:00:15;;;;;;;4.75;0.90;;;15.50;98.10;;;;;;5063267;28;20550;-71
2023/04/02 11:03:06;;;;;;;5.85;1.00;;;15.60;96.00;;;;;;5061698;28;20071;-72
2023/04/02 11:05:39;;;;;;;3.58;1.02;;;15.80;98.30;;;;;;5059678;28;20375;-72
2023/04/02 11:08:40;;;;;;;3.28;1.00;;;15.90;98.20;;;;;;5072645;28;20113;-72
2023/04/02 11:11:16;;;;;;;2.63;0.97;;;16.10;96.20;;;;;;5063155;28;20056;-72
2023/04/02 11:13:46;;;;;;;5.28;1.20;;;16.10;97.50;;;;;;5059213;28;20698;-72
2023/04/02 11:16:15;;;;;;;3.83;1.10;;;16.20;97.30;;;;;;5074247;28;20048;-71
2023/04/02 11:18:43;;;;;;;3.83;0.95;;;16.20;97.10;;;;;;5062229;28;20163;-72
2023/04/02 11:21:37;;;;;;;4.22;1.20;;;16.30;96.50;;;;;;5064496;28;20048;-72
2023/04/02 11:24:03;;;;;;;3.95;1.10;;;16.60;94.80;;;;;;5061233;28;20052;-72
2023/04/02 11:26:40;;;;;;;3.08;0.98;;;16.70;96.10;;;;;;5065205;28;20059;-71
2023/04/02 11:29:31;;;;;;;3.38;1.23;;;16.60;93.90;;;;;;5063459;28;20063;-72
2023/04/02 11:32:19;;;;;;;4.93;1.08;;;16.70;93.60;;;;;;5050166;28;20088;-72
2023/04/02 11:34:48;;;;;;;5.10;1.55;;;16.70;91.40;;;;;;5063217;28;20645;-72
2023/04/02 11:37:37;;;;;;;3.90;1.15;;;16.60;93.60;;;;;;5062552;28;20048;-72
2023/04/02 11:40:25;;;;;;;4.45;1.20;;;16.70;91.90;;;;;;5061641;28;20559;-72
2023/04/02 11:42:52;;;;;;;4.60;1.35;;;16.70;94.40;;;;;;5061136;28;20055;-72
2023/04/02 11:48:07;;;;;;;4.70;1.27;;;16.80;93.60;;;;;;5059538;28;20048;-72
2023/04/02 11:50:37;;;;;;;5.45;1.10;;;17.10;91.30;;;;;;5056864;28;20501;-72
2023/04/02 11:53:10;;;;;;;3.78;0.90;;;17.10;92.70;;;;;;5057213;28;20059;-72
2023/04/02 11:55:44;;;;;;;3.20;0.90;;;17.20;92.20;;;;;;5056003;28;20051;-73
2023/04/02 11:58:16;;;;;;;3.90;0.90;;;17.30;89.20;;;;;;5065395;28;20095;-71
2023/04/02 12:00:54;;;;;;;3.78;0.98;;;17.40;90.60;;;;;;5064636;28;20059;-71
2023/04/02 12:03:41;;;;;;;5.10;0.98;;;17.40;90.70;;;;;;5066213;28;20044;-73
2023/04/02 12:06:38;;;;;;;3.63;0.90;;;17.60;88.20;;;;;;5064339;28;20045;-71
2023/04/02 12:09:27;;;;;;;3.28;1.00;;;17.60;84.20;;;;;;5065706;28;20056;-71
2023/04/02 12:11:56;;;;;;;4.10;1.10;;;17.40;85.80;;;;;;5063924;28;20048;-69
2023/04/02 12:14:44;;;;;;;2.97;1.02;;;17.40;90.00;;;;;;5047805;28;20052;-71
2023/04/02 12:17:38;;;;;;;4.38;1.00;;;17.40;88.10;;;;;;5079757;28;20502;-71
2023/04/02 12:20:12;;;;;;;2.45;1.00;;;17.60;82.90;;;;;;5058866;28;20068;-72
2023/04/02 12:22:46;;;;;;;4.53;1.20;;;17.60;88.00;;;;;;5063744;28;20056;-73
2023/04/02 12:25:38;;;;;;;3.03;1.13;;;17.70;87.80;;;;;;5063498;28;20052;-73
2023/04/02 12:28:18;;;;;;;2.70;1.00;;;17.40;85.30;;;;;;5063151;28;20052;-71
2023/04/02 12:30:46;;;;;;;6.85;3.10;;;17.20;83.90;;;;;;5064171;28;20056;-72
2023/04/02 12:33:21;;;;;;;3.60;1.63;;;17.10;87.40;;;;;;5063611;28;20041;-72
2023/04/02 12:35:49;;;;;;;8.38;3.83;;;16.90;85.80;;;;;;5065248;28;20627;-72
2023/04/02 12:38:26;;;;;;;4.95;1.92;;;17.10;87.50;;;;;;5064159;28;20053;-72
2023/04/02 12:41:04;;;;;;;4.63;1.35;;;17.00;85.00;;;;;;5063648;28;20056;-71
2023/04/02 12:43:36;;;;;;;3.28;1.70;;;16.80;84.60;;;;;;5057284;28;20058;-73
2023/04/02 12:46:07;;;;;;;5.25;1.80;;;17.00;85.40;;;;;;5063367;28;20123;-72
2023/04/02 12:48:34;;;;;;;3.42;1.70;;;17.00;85.90;;;;;;5045301;28;20049;-72
2023/04/02 12:51:01;;;;;;;4.32;1.77;;;17.20;86.00;;;;;;5045512;28;20513;-73
2023/04/02 12:53:38;;;;;;;2.75;1.30;;;17.30;85.80;;;;;;5062285;28;20475;-72
2023/04/02 12:56:07;;;;;;;6.43;2.10;;;17.40;84.00;;;;;;5062630;28;20040;-71
2023/04/02 12:58:41;;;;;;;4.47;1.63;;;17.40;85.30;;;;;;5059271;28;20057;-72
2023/04/02 13:01:13;;;;;;;5.10;1.95;;;17.50;83.10;;;;;;5056625;28;20044;-71
2023/04/02 13:03:40;;;;;;;6.00;1.50;;;17.60;84.00;;;;;;5061487;28;20128;-71
2023/04/02 13:06:29;;;;;;;4.55;1.38;;;17.70;83.90;;;;;;5048328;28;20153;-71
2023/04/02 13:08:55;;;;;;;2.78;1.00;;;17.80;77.40;;;;;;5063486;28;20047;-72
2023/04/02 13:11:32;;;;;;;3.10;0.85;;;17.90;83.60;;;;;;5058302;28;20087;-72
2023/04/02 13:14:01;;;;;;;3.58;0.93;;;17.80;82.70;;;;;;5059895;28;20051;-70
2023/04/02 13:16:32;;;;;;;3.20;1.00;;;17.90;82.90;;;;;;5061516;28;20062;-71
2023/04/02 13:19:18;;;;;;;3.33;1.30;;;17.80;82.10;;;;;;5062298;28;20045;-72
2023/04/02 13:21:44;;;;;;;3.20;1.23;;;17.90;81.20;;;;;;5059053;28;20051;-71
2023/04/02 13:24:19;;;;;;;3.35;1.30;;;17.80;82.60;;;;;;5065769;28;20369;-71
2023/04/02 13:26:55;;;;;;;4.28;1.70;;;17.80;80.50;;;;;;5065582;28;20063;-73
2023/04/02 13:29:31;;;;;;;4.22;1.33;;;17.70;81.40;;;;;;5060031;28;20036;-72
2023/04/02 13:32:02;;;;;;;4.13;1.40;;;17.80;81.50;;;;;;5072053;28;20055;-73
2023/04/02 13:34:28;;;;;;;4.68;2.30;;;17.90;81.50;;;;;;5058534;28;20159;-79
2023/04/02 13:36:56;;;;;;;5.22;1.30;;;17.80;81.50;;;;;;5043971;28;20139;-76
2023/04/02 13:39:22;;;;;;;5.15;1.75;;;17.80;81.70;;;;;;5062565;28;20055;-75
2023/04/02 13:41:57;;;;;;;3.75;1.08;;;17.80;81.60;;;;;;5045321;28;20071;-75
2023/04/02 13:44:26;;;;;;;2.08;1.10;;;17.80;80.80;;;;;;5059424;28;20116;-75